TimeEDT,TemperatureF,Dew PointF,Humidity,Sea Level PressureIn,VisibilityMPH,Wind Direction,Wind SpeedMPH,Gust SpeedMPH,PrecipitationIn,Events,Conditions,WindDirDegrees,DateUTC
12:53 AM,41.0,37.9,89,30.35,10.0,Calm,Calm,-,N/A,,Clear,0,2011-10-07 04:53:00
1:53 AM,39.0,37.0,93,30.37,10.0,Calm,Calm,-,N/A,,Clear,0,2011-10-07 05:53:00
2:53 AM,39.0,36.0,89,30.37,10.0,Calm,Calm,-,N/A,,Clear,0,2011-10-07 06:53:00
3:53 AM,37.9,36.0,93,30.37,10.0,Calm,Calm,-,N/A,,Clear,0,2011-10-07 07:53:00
4:53 AM,37.9,36.0,93,30.39,10.0,Calm,Calm,-,N/A,,Clear,0,2011-10-07 08:53:00
5:53 AM,37.0,35.1,93,30.40,10.0,Calm,Calm,-,N/A,,Clear,0,2011-10-07 09:53:00
6:53 AM,37.0,35.1,93,30.43,10.0,Calm,Calm,-,N/A,,Clear,0,2011-10-07 10:53:00
7:53 AM,37.9,36.0,93,30.45,10.0,Calm,Calm,-,N/A,,Clear,0,2011-10-07 11:53:00
8:53 AM,44.1,39.9,85,30.47,10.0,Calm,Calm,-,N/A,,Clear,0,2011-10-07 12:53:00
9:53 AM,48.9,42.1,77,30.48,10.0,Calm,Calm,-,N/A,,Clear,0,2011-10-07 13:53:00
10:53 AM,55.0,42.1,62,30.48,10.0,Calm,Calm,-,N/A,,Clear,0,2011-10-07 14:53:00
11:53 AM,57.2,39.2,51,30.48,10.0,Calm,Calm,-,N/A,,Clear,0,2011-10-07 15:53:00
1:53 PM,63.0,27.0,26,30.44,10.0,Calm,Calm,-,N/A,,Clear,0,2011-10-07 17:53:00
2:53 PM,64.9,30.0,27,30.43,10.0,East,3.5,-,N/A,,Clear,100,2011-10-07 18:53:00
3:53 PM,66.0,37.0,34,30.42,10.0,West,3.5,-,N/A,,Clear,280,2011-10-07 19:53:00
4:53 PM,64.4,39.2,40,30.42,10.0,WSW,4.6,-,N/A,,Clear,250,2011-10-07 20:53:00
5:53 PM,62.1,43.0,50,30.42,10.0,Calm,Calm,-,N/A,,Clear,0,2011-10-07 21:53:00
6:53 PM,55.0,46.0,72,30.42,10.0,Calm,Calm,-,N/A,,Clear,0,2011-10-07 22:53:00
7:53 PM,52.0,46.0,80,30.43,10.0,Calm,Calm,-,N/A,,Clear,0,2011-10-07 23:53:00
8:53 PM,50.0,46.0,86,30.44,10.0,Calm,Calm,-,N/A,,Clear,0,2011-10-08 00:53:00
9:53 PM,48.0,45.0,89,30.44,10.0,Calm,Calm,-,N/A,,Clear,0,2011-10-08 01:53:00
10:53 PM,46.9,44.1,90,30.44,10.0,Calm,Calm,-,N/A,,Clear,0,2011-10-08 02:53:00
11:53 PM,46.0,43.0,89,30.44,10.0,Calm,Calm,-,N/A,,Clear,0,2011-10-08 03:53:00